createdAt,value
2018-05-31T00:00:59.486Z,66.66
2018-05-31T00:03:27.707Z,66.14
2018-05-31T00:05:55.914Z,65.79
2018-05-31T00:08:24.119Z,65.35
2018-05-31T00:10:52.352Z,65.36
2018-05-31T00:13:20.544Z,65.61
2018-05-31T00:15:48.764Z,65.65
2018-05-31T00:18:16.969Z,65.83
2018-05-31T00:20:45.195Z,66.37
2018-05-31T00:23:13.430Z,67.02
2018-05-31T00:25:41.663Z,66.73
2018-05-31T00:28:09.914Z,66.95
2018-05-31T00:30:38.110Z,66.62
2018-05-31T00:33:06.287Z,66.45
2018-05-31T00:35:34.578Z,67.73
2018-05-31T00:38:02.769Z,67.52
2018-05-31T00:40:31.010Z,66.41
2018-05-31T00:42:59.191Z,66.90
2018-05-31T00:45:27.480Z,66.76
2018-05-31T00:47:55.671Z,67.08
2018-05-31T00:50:23.914Z,67.77
2018-05-31T00:52:52.105Z,67.19
2018-05-31T00:58:22.754Z,67.79
2018-05-31T01:00:50.940Z,67.99
2018-05-31T01:03:19.136Z,68.14
2018-05-31T01:05:47.352Z,68.45
2018-05-31T01:08:15.542Z,68.23
2018-05-31T01:10:43.758Z,67.90
2018-05-31T01:13:11.968Z,68.17
2018-05-31T01:15:40.227Z,68.26
2018-05-31T01:18:08.421Z,68.23
2018-05-31T01:20:36.632Z,68.17
2018-05-31T01:23:04.795Z,68.28
2018-05-31T01:25:33.021Z,68.39
2018-05-31T01:28:01.314Z,68.69
2018-05-31T01:30:29.513Z,68.68
2018-05-31T01:32:57.738Z,68.59
2018-05-31T01:35:25.937Z,68.66
2018-05-31T01:40:48.690Z,69.07
2018-05-31T01:43:16.891Z,69.82
2018-05-31T01:45:45.090Z,69.26
2018-05-31T01:48:13.343Z,69.29
2018-05-31T01:50:41.530Z,70.06
2018-05-31T01:53:09.755Z,69.59
2018-05-31T01:55:38.000Z,69.77
2018-05-31T01:58:06.221Z,69.88
2018-05-31T02:00:34.429Z,70.07
2018-05-31T02:03:02.599Z,70.23
2018-05-31T02:05:30.805Z,70.34
2018-05-31T02:07:59.010Z,70.44
2018-05-31T02:10:27.240Z,70.40
2018-05-31T02:12:55.436Z,70.66
2018-05-31T02:15:23.613Z,70.75
2018-05-31T02:17:51.818Z,70.83
2018-05-31T02:20:20.008Z,70.97
2018-05-31T02:22:48.224Z,71.26
2018-05-31T02:25:16.441Z,71.40
2018-05-31T02:27:44.651Z,71.61
2018-05-31T02:30:12.881Z,71.86
2018-05-31T02:32:41.088Z,72.13
2018-05-31T02:35:09.312Z,72.73
2018-05-31T02:37:37.511Z,72.98
2018-05-31T02:40:05.729Z,73.12
2018-05-31T02:42:33.927Z,73.79
2018-05-31T02:45:02.159Z,74.05
2018-05-31T02:47:30.348Z,74.50
2018-05-31T02:49:58.545Z,74.25
2018-05-31T02:52:26.743Z,74.41
2018-05-31T02:54:54.930Z,74.47
2018-05-31T02:57:23.138Z,74.62
2018-05-31T02:59:51.312Z,74.95
2018-05-31T03:02:19.520Z,74.96
2018-05-31T03:04:47.728Z,74.55
2018-05-31T03:07:15.894Z,74.53
2018-05-31T03:09:44.115Z,74.59
2018-05-31T03:12:12.320Z,74.72
2018-05-31T03:14:40.543Z,74.48
2018-05-31T03:17:08.744Z,74.42
2018-05-31T03:19:36.966Z,74.04
2018-05-31T03:22:05.160Z,74.00
2018-05-31T03:24:33.346Z,74.61
2018-05-31T03:27:01.582Z,74.76
2018-05-31T03:29:29.812Z,74.84
2018-05-31T03:31:58.050Z,74.93
2018-05-31T03:34:26.309Z,74.74
2018-05-31T03:36:54.539Z,74.85
2018-05-31T03:39:22.699Z,75.20
2018-05-31T03:41:50.877Z,74.99
2018-05-31T03:44:19.084Z,75.19
2018-05-31T03:46:47.284Z,75.24
2018-05-31T03:49:15.571Z,75.13
2018-05-31T03:51:43.762Z,75.24
2018-05-31T03:54:11.922Z,75.07
2018-05-31T03:56:40.109Z,75.29
2018-05-31T03:59:08.300Z,75.63
2018-05-31T04:01:36.482Z,75.31
2018-05-31T04:04:04.665Z,75.13
2018-05-31T04:06:32.880Z,74.31
2018-05-31T04:09:01.063Z,72.53
2018-05-31T04:11:29.282Z,71.90
2018-05-31T04:13:57.480Z,71.96
2018-05-31T04:16:25.668Z,71.71
2018-05-31T04:19:07.978Z,70.64
2018-05-31T04:21:38.872Z,69.54
2018-05-31T04:24:07.353Z,69.62
2018-05-31T04:26:35.516Z,68.85
2018-05-31T04:29:03.794Z,68.38
2018-05-31T04:31:31.969Z,68.78
2018-05-31T04:34:00.210Z,68.41
2018-05-31T04:36:28.411Z,68.48
2018-05-31T04:38:56.649Z,69.11
2018-05-31T04:41:24.842Z,68.62
2018-05-31T04:43:53.011Z,68.68
2018-05-31T04:46:21.220Z,68.06
2018-05-31T04:48:49.402Z,67.60
2018-05-31T04:51:17.608Z,67.33
2018-05-31T04:53:45.831Z,67.13
2018-05-31T04:56:14.035Z,67.14
2018-05-31T04:58:42.310Z,67.15
2018-05-31T05:01:10.523Z,66.91
2018-05-31T05:03:38.703Z,66.87
2018-05-31T05:06:06.876Z,66.85
2018-05-31T05:08:35.077Z,66.69
2018-05-31T05:11:17.647Z,66.93
2018-05-31T05:13:47.813Z,67.19
2018-05-31T05:16:16.052Z,67.22
2018-05-31T05:18:44.275Z,67.23
2018-05-31T05:21:12.441Z,67.30
2018-05-31T05:23:40.659Z,67.14
2018-05-31T05:26:08.920Z,67.50
2018-05-31T05:28:37.097Z,68.33
2018-05-31T05:31:05.337Z,69.24
2018-05-31T05:33:33.505Z,69.16
2018-05-31T05:36:01.707Z,67.84
2018-05-31T05:38:29.965Z,68.56
2018-05-31T05:40:58.139Z,66.70
2018-05-31T05:43:26.381Z,67.11
2018-05-31T05:45:54.544Z,67.28
2018-05-31T05:48:22.726Z,67.05
2018-05-31T05:50:50.953Z,64.83
2018-05-31T05:53:19.163Z,62.75
2018-05-31T05:55:47.363Z,61.87
2018-05-31T05:58:15.564Z,61.24
2018-05-31T06:00:43.720Z,61.07
2018-05-31T06:03:11.909Z,61.54
2018-05-31T06:05:40.063Z,61.14
2018-05-31T06:08:08.268Z,60.98
2018-05-31T06:10:36.581Z,61.10
2018-05-31T06:13:04.789Z,61.04
2018-05-31T06:15:33.061Z,60.97
2018-05-31T06:18:01.192Z,60.96
2018-05-31T06:20:29.427Z,61.75
2018-05-31T06:22:57.608Z,60.57
2018-05-31T06:25:25.831Z,60.02
2018-05-31T06:27:54.024Z,59.70
2018-05-31T06:30:22.243Z,59.74
2018-05-31T06:32:50.455Z,59.58
2018-05-31T06:35:18.656Z,59.07
2018-05-31T06:37:46.840Z,59.11
2018-05-31T06:40:15.037Z,60.41
2018-05-31T06:42:43.210Z,58.08
2018-05-31T06:45:11.358Z,56.92
2018-05-31T06:47:39.549Z,57.06
2018-05-31T06:50:07.759Z,57.06
2018-05-31T06:52:35.919Z,56.80
2018-05-31T06:55:04.124Z,57.23
2018-05-31T06:57:32.294Z,56.99
2018-05-31T07:00:00.481Z,56.19
2018-05-31T07:02:28.642Z,56.74
2018-05-31T07:07:31.176Z,57.75
2018-05-31T07:09:59.351Z,56.05
2018-05-31T07:12:27.543Z,55.93
2018-05-31T07:14:55.746Z,55.93
2018-05-31T07:17:23.953Z,55.94
2018-05-31T07:19:52.134Z,56.71
2018-05-31T07:22:20.286Z,56.83
2018-05-31T07:24:48.486Z,55.52
2018-05-31T07:27:16.679Z,56.52
2018-05-31T07:29:44.883Z,55.17
2018-05-31T07:32:13.071Z,55.06
2018-05-31T07:34:41.275Z,53.45
2018-05-31T07:37:09.432Z,53.58
2018-05-31T07:39:37.593Z,52.95
2018-05-31T07:42:05.783Z,53.09
2018-05-31T07:44:33.932Z,53.05
2018-05-31T07:47:02.129Z,53.45
2018-05-31T07:49:30.319Z,54.07
2018-05-31T07:51:58.516Z,53.81
2018-05-31T07:54:26.714Z,53.58
2018-05-31T07:56:54.868Z,54.46
2018-05-31T07:59:23.071Z,53.42
2018-05-31T08:01:51.234Z,53.18
2018-05-31T08:04:19.490Z,52.62
2018-05-31T08:06:47.675Z,52.10
2018-05-31T08:09:15.836Z,51.87
2018-05-31T08:11:44.114Z,51.36
2018-05-31T08:14:12.298Z,51.77
2018-05-31T08:16:40.469Z,51.97
2018-05-31T08:19:08.681Z,51.00
2018-05-31T08:21:36.864Z,51.29
2018-05-31T08:24:05.022Z,51.49
2018-05-31T08:26:42.042Z,52.06
2018-05-31T08:29:13.684Z,51.20
2018-05-31T08:31:41.942Z,50.41
2018-05-31T08:34:10.232Z,50.97
2018-05-31T08:36:38.457Z,51.73
2018-05-31T08:39:06.689Z,51.77
2018-05-31T08:41:34.941Z,50.69
2018-05-31T08:44:03.212Z,50.94
2018-05-31T08:46:31.445Z,51.06
2018-05-31T08:48:59.686Z,52.21
2018-05-31T08:51:27.877Z,49.98
2018-05-31T08:53:56.042Z,50.26
2018-05-31T08:56:24.221Z,49.89
2018-05-31T08:58:52.441Z,49.96
2018-05-31T09:01:20.746Z,49.19
2018-05-31T09:03:48.887Z,49.66
2018-05-31T09:06:17.082Z,49.96
2018-05-31T09:08:45.247Z,50.16
2018-05-31T09:11:13.427Z,49.79
2018-05-31T09:13:41.642Z,50.80
2018-05-31T09:16:09.835Z,50.33
2018-05-31T09:18:38.112Z,50.20
2018-05-31T09:21:06.291Z,50.96
2018-05-31T09:23:34.440Z,50.71
2018-05-31T09:26:02.636Z,50.48
2018-05-31T09:28:30.823Z,50.93
2018-05-31T09:30:59.029Z,50.04
2018-05-31T09:33:27.164Z,50.06
2018-05-31T09:35:55.351Z,49.66
2018-05-31T09:38:23.507Z,49.19
2018-05-31T09:40:51.674Z,50.40
2018-05-31T09:43:19.861Z,49.78
2018-05-31T09:45:48.082Z,51.07
2018-05-31T09:48:16.276Z,50.66
2018-05-31T09:50:44.416Z,50.13
2018-05-31T09:53:12.621Z,49.88
2018-05-31T09:55:40.777Z,49.51
2018-05-31T09:58:08.989Z,49.86
2018-05-31T10:00:37.956Z,49.18
2018-05-31T10:03:06.100Z,49.15
2018-05-31T10:05:34.387Z,48.86
2018-05-31T10:08:04.378Z,48.46
2018-05-31T10:10:33.931Z,48.70
2018-05-31T10:13:03.127Z,49.27
2018-05-31T10:15:31.487Z,51.43
2018-05-31T10:18:00.799Z,52.49
2018-05-31T10:20:28.978Z,53.79
2018-05-31T10:22:57.164Z,54.84
2018-05-31T10:25:25.375Z,55.18
2018-05-31T10:27:54.354Z,53.96
2018-05-31T10:30:22.518Z,53.93
2018-05-31T10:32:50.714Z,54.19
2018-05-31T10:35:18.924Z,54.43
2018-05-31T10:37:47.117Z,54.61
2018-05-31T10:40:15.328Z,54.88
2018-05-31T10:42:43.535Z,54.09
2018-05-31T10:45:11.724Z,53.39
2018-05-31T10:47:39.888Z,52.22
2018-05-31T10:50:08.175Z,52.98
2018-05-31T10:52:36.457Z,53.39
2018-05-31T10:55:05.875Z,52.54
2018-05-31T10:57:35.108Z,52.50
2018-05-31T11:00:03.301Z,53.04
2018-05-31T11:02:31.694Z,51.98
2018-05-31T11:04:59.854Z,52.45
2018-05-31T11:07:28.007Z,52.83
2018-05-31T11:09:56.210Z,52.00
2018-05-31T11:12:24.364Z,51.92
2018-05-31T11:14:52.548Z,51.58
2018-05-31T11:17:20.732Z,50.42
2018-05-31T11:19:48.966Z,49.47
2018-05-31T11:22:17.138Z,49.11
2018-05-31T11:24:45.326Z,48.56
2018-05-31T11:27:13.498Z,48.76
2018-05-31T11:29:41.761Z,48.49
2018-05-31T11:32:09.927Z,49.20
2018-05-31T11:34:38.118Z,48.83
2018-05-31T11:37:06.320Z,49.70
2018-05-31T11:39:34.813Z,49.20
2018-05-31T11:42:02.989Z,51.30
2018-05-31T11:44:31.184Z,49.20
2018-05-31T11:46:59.317Z,48.81
2018-05-31T11:49:27.496Z,48.37
2018-05-31T11:51:55.658Z,48.42
2018-05-31T11:54:23.911Z,47.84
2018-05-31T11:56:52.093Z,46.76
2018-05-31T11:59:20.275Z,47.07
2018-05-31T12:01:48.600Z,46.48
2018-05-31T12:04:16.793Z,45.75
2018-05-31T12:06:44.989Z,43.66
2018-05-31T12:09:13.183Z,43.18
2018-05-31T12:11:41.345Z,42.02
2018-05-31T12:14:09.547Z,41.34
2018-05-31T12:16:37.710Z,40.50
2018-05-31T12:19:05.871Z,40.31
2018-05-31T12:21:34.054Z,39.43
2018-05-31T12:24:02.234Z,39.81
2018-05-31T12:26:30.418Z,39.86
2018-05-31T12:28:58.606Z,40.06
2018-05-31T12:31:26.773Z,39.77
2018-05-31T12:33:54.953Z,39.55
2018-05-31T12:36:23.125Z,39.52
2018-05-31T12:38:51.298Z,38.80
2018-05-31T12:41:19.496Z,39.53
2018-05-31T12:43:47.685Z,39.43
2018-05-31T12:46:15.866Z,39.63
2018-05-31T12:48:44.014Z,40.32
2018-05-31T12:51:12.208Z,40.69
2018-05-31T12:53:40.373Z,41.70
2018-05-31T12:56:08.591Z,42.55
2018-05-31T12:58:36.775Z,42.85
2018-05-31T13:01:04.967Z,43.61
2018-05-31T13:03:33.147Z,43.77
2018-05-31T13:06:01.360Z,44.12
2018-05-31T13:08:29.508Z,43.69
2018-05-31T13:10:57.655Z,43.24
2018-05-31T13:13:25.849Z,41.84
2018-05-31T13:15:54.015Z,40.29
2018-05-31T13:18:22.188Z,39.49
2018-05-31T13:20:50.347Z,38.87
2018-05-31T13:23:18.510Z,38.84
2018-05-31T13:25:46.788Z,38.37
2018-05-31T13:28:14.947Z,39.02
2018-05-31T13:30:43.166Z,38.67
2018-05-31T13:33:11.330Z,37.56
2018-05-31T13:35:39.517Z,37.55
2018-05-31T13:38:07.813Z,37.52
2018-05-31T13:40:35.959Z,37.81
2018-05-31T13:43:04.187Z,37.74
2018-05-31T13:45:32.335Z,36.72
2018-05-31T13:48:00.520Z,37.11
2018-05-31T13:50:28.723Z,36.14
2018-05-31T13:52:56.912Z,37.86
2018-05-31T13:55:25.075Z,38.05
2018-05-31T13:57:53.273Z,39.22
2018-05-31T14:00:21.452Z,39.58
2018-05-31T14:02:49.669Z,40.71
2018-05-31T14:05:17.828Z,41.01
2018-05-31T14:07:45.999Z,39.97
2018-05-31T14:10:14.180Z,40.02
2018-05-31T14:12:42.334Z,39.61
2018-05-31T14:15:10.528Z,37.43
2018-05-31T14:17:38.696Z,36.99
2018-05-31T14:20:06.900Z,35.25
2018-05-31T14:22:35.087Z,36.20
2018-05-31T14:25:03.264Z,35.33
2018-05-31T14:27:31.455Z,33.99
2018-05-31T14:29:59.662Z,34.31
2018-05-31T14:32:27.832Z,32.61
2018-05-31T14:34:56.039Z,32.95
2018-05-31T14:37:24.195Z,34.55
2018-05-31T14:39:52.378Z,34.11
2018-05-31T14:42:20.529Z,33.27
2018-05-31T14:44:48.724Z,34.29
2018-05-31T14:47:16.891Z,33.21
2018-05-31T14:49:45.066Z,33.69
2018-05-31T14:52:13.279Z,34.05
2018-05-31T14:54:41.462Z,34.96
2018-05-31T14:57:09.641Z,33.44
2018-05-31T14:59:37.854Z,32.17
2018-05-31T15:02:06.023Z,31.21
2018-05-31T15:04:34.189Z,31.52
2018-05-31T15:07:02.434Z,32.15
2018-05-31T15:09:30.724Z,33.89
2018-05-31T15:11:58.874Z,33.34
2018-05-31T15:14:27.086Z,32.63
2018-05-31T15:16:55.281Z,33.12
2018-05-31T15:19:23.471Z,33.07
2018-05-31T15:21:51.671Z,33.59
2018-05-31T15:24:19.932Z,33.52
2018-05-31T15:26:48.261Z,33.82
2018-05-31T15:29:16.459Z,33.91
2018-05-31T15:31:44.805Z,34.28
2018-05-31T15:34:13.096Z,34.32
2018-05-31T15:36:41.447Z,33.65
2018-05-31T15:39:09.690Z,35.08
2018-05-31T15:41:37.876Z,34.91
2018-05-31T15:44:06.220Z,35.42
2018-05-31T15:46:34.430Z,36.12
2018-05-31T15:49:02.666Z,36.02
2018-05-31T15:51:31.026Z,36.65
2018-05-31T15:53:59.234Z,36.37
2018-05-31T15:56:27.394Z,36.58
2018-05-31T15:58:55.602Z,36.98
2018-05-31T16:01:23.784Z,38.29
2018-05-31T16:03:51.975Z,38.59
2018-05-31T16:06:20.164Z,38.79
2018-05-31T16:08:48.359Z,39.14
2018-05-31T16:11:16.941Z,39.51
2018-05-31T16:13:45.174Z,40.06
2018-05-31T16:16:13.451Z,40.02
2018-05-31T16:18:42.292Z,40.46
2018-05-31T16:21:10.809Z,40.42
2018-05-31T16:23:39.548Z,40.64
2018-05-31T16:26:07.936Z,41.09
2018-05-31T16:28:36.332Z,41.45
2018-05-31T16:31:04.642Z,41.47
2018-05-31T16:33:32.855Z,41.63
2018-05-31T16:36:01.133Z,42.04
2018-05-31T16:38:29.322Z,42.26
2018-05-31T16:40:57.597Z,42.14
2018-05-31T16:43:25.897Z,42.32
2018-05-31T16:45:54.164Z,42.50
2018-05-31T16:48:22.406Z,42.36
2018-05-31T16:50:50.734Z,42.10
2018-05-31T16:53:19.208Z,42.99
2018-05-31T16:55:47.492Z,44.08
2018-05-31T16:58:15.813Z,44.77
2018-05-31T17:00:44.339Z,45.09
2018-05-31T17:03:12.667Z,45.14
2018-05-31T17:05:40.885Z,45.57
2018-05-31T17:08:09.210Z,45.52
2018-05-31T17:10:37.476Z,45.15
2018-05-31T17:13:05.742Z,44.94
2018-05-31T17:15:34.038Z,44.93
2018-05-31T17:18:02.503Z,44.76
2018-05-31T17:20:30.747Z,44.08
2018-05-31T17:22:59.004Z,44.54
2018-05-31T17:25:27.286Z,44.81
2018-05-31T17:27:55.591Z,45.10
2018-05-31T17:30:24.104Z,45.08
2018-05-31T17:32:52.291Z,44.96
2018-05-31T17:35:20.496Z,44.86
2018-05-31T17:37:48.761Z,44.86
2018-05-31T17:40:16.987Z,45.03
2018-05-31T17:42:45.213Z,44.53
2018-05-31T17:45:13.453Z,44.95
2018-05-31T17:47:41.665Z,45.10
2018-05-31T17:50:09.961Z,44.82
2018-05-31T17:52:38.249Z,44.56
2018-05-31T17:55:06.496Z,45.50
2018-05-31T17:57:34.737Z,47.22
2018-05-31T18:00:02.910Z,47.78
2018-05-31T18:02:31.078Z,48.96
2018-05-31T18:04:59.261Z,49.84
2018-05-31T18:07:27.438Z,49.94
2018-05-31T18:09:55.624Z,49.91
2018-05-31T18:12:23.819Z,50.46
2018-05-31T18:14:52.019Z,51.25
2018-05-31T18:17:20.205Z,51.04
2018-05-31T18:19:48.393Z,51.63
2018-05-31T18:22:16.580Z,51.54
2018-05-31T18:24:44.827Z,51.79
2018-05-31T18:27:13.000Z,51.90
2018-05-31T18:29:41.247Z,51.81
2018-05-31T18:32:11.247Z,52.06
2018-05-31T18:34:39.449Z,52.25
2018-05-31T18:37:07.688Z,52.37
2018-05-31T18:39:35.949Z,52.41
2018-05-31T18:42:04.107Z,52.46
2018-05-31T18:44:32.294Z,52.40
2018-05-31T18:47:00.501Z,52.45
2018-05-31T18:49:28.693Z,52.32
2018-05-31T18:51:57.018Z,52.63
2018-05-31T18:54:25.270Z,52.70
2018-05-31T18:56:53.487Z,52.54
2018-05-31T18:59:21.683Z,52.96
2018-05-31T19:01:49.880Z,53.08
2018-05-31T19:04:18.109Z,53.13
2018-05-31T19:06:46.288Z,53.33
2018-05-31T19:09:20.163Z,53.14
2018-05-31T19:11:48.354Z,53.56
2018-05-31T19:14:16.550Z,53.55
2018-05-31T19:16:44.772Z,53.66
2018-05-31T19:19:18.514Z,53.53
2018-05-31T19:21:46.722Z,53.75
2018-05-31T19:24:20.335Z,53.76
2018-05-31T19:26:48.506Z,53.33
2018-05-31T19:29:16.741Z,53.27
2018-05-31T19:31:44.913Z,53.18
2018-05-31T19:34:13.165Z,53.86
2018-05-31T19:36:47.045Z,53.48
2018-05-31T19:39:15.270Z,53.46
2018-05-31T19:41:43.470Z,54.11
2018-05-31T19:44:17.197Z,54.09
2018-05-31T19:46:45.370Z,54.09
2018-05-31T19:49:13.550Z,54.33
2018-05-31T19:51:47.355Z,54.37
2018-05-31T19:54:15.566Z,54.38
2018-05-31T19:56:43.723Z,54.50
2018-05-31T19:59:17.510Z,54.70
2018-05-31T20:01:51.257Z,55.27
2018-05-31T20:04:19.458Z,55.06
2018-05-31T20:06:47.629Z,55.35
2018-05-31T20:09:15.805Z,55.72
2018-05-31T20:11:44.014Z,56.12
2018-05-31T20:14:12.222Z,56.08
2018-05-31T20:16:40.432Z,56.21
2018-05-31T20:19:08.611Z,56.33
2018-05-31T20:21:36.837Z,56.66
2018-05-31T20:24:05.020Z,57.00
2018-05-31T20:26:33.275Z,57.14
2018-05-31T20:29:01.496Z,57.04
2018-05-31T20:31:29.711Z,57.61
2018-05-31T20:33:57.944Z,57.51
2018-05-31T20:36:26.120Z,58.02
2018-05-31T20:38:54.286Z,57.94
2018-05-31T20:41:22.528Z,57.91
2018-05-31T20:43:50.696Z,57.82
2018-05-31T20:46:18.909Z,57.94
2018-05-31T20:48:47.094Z,58.05
2018-05-31T20:51:15.326Z,58.25
2018-05-31T20:53:44.455Z,58.34
2018-05-31T20:56:12.650Z,58.78
2018-05-31T20:58:40.842Z,58.63
2018-05-31T21:01:09.020Z,58.87
2018-05-31T21:03:37.272Z,59.08
2018-05-31T21:06:05.433Z,59.38
2018-05-31T21:08:33.646Z,59.29
2018-05-31T21:11:01.852Z,59.49
2018-05-31T21:13:30.019Z,59.61
2018-05-31T21:15:58.185Z,59.78
2018-05-31T21:18:26.394Z,59.73
2018-05-31T21:20:54.605Z,60.13
2018-05-31T21:23:22.819Z,60.07
2018-05-31T21:25:50.971Z,60.62
2018-05-31T21:28:19.170Z,60.12
2018-05-31T21:30:47.349Z,60.34
2018-05-31T21:33:15.546Z,60.62
2018-05-31T21:35:43.811Z,61.46
2018-05-31T21:38:11.959Z,61.51
2018-05-31T21:40:40.242Z,61.52
2018-05-31T21:43:08.463Z,61.81
2018-05-31T21:45:36.643Z,61.62
2018-05-31T21:48:04.856Z,61.97
2018-05-31T21:50:33.039Z,62.10
2018-05-31T21:53:01.253Z,62.47
2018-05-31T21:55:29.437Z,62.61
2018-05-31T21:57:57.654Z,63.14
2018-05-31T22:00:40.288Z,63.04
2018-05-31T22:03:08.461Z,63.02
2018-05-31T22:05:36.717Z,63.18
2018-05-31T22:08:04.843Z,63.47
2018-05-31T22:10:33.036Z,64.09
2018-05-31T22:13:01.219Z,64.72
2018-05-31T22:15:29.397Z,64.58
2018-05-31T22:17:57.611Z,64.60
2018-05-31T22:20:25.791Z,64.99
2018-05-31T22:22:53.956Z,65.36
2018-05-31T22:25:22.167Z,65.47
2018-05-31T22:27:50.315Z,65.45
2018-05-31T22:30:18.514Z,65.48
2018-05-31T22:32:46.741Z,65.59
2018-05-31T22:35:14.888Z,65.21
2018-05-31T22:37:43.072Z,65.39
2018-05-31T22:40:11.285Z,65.05
2018-05-31T22:42:39.452Z,65.25
2018-05-31T22:45:07.646Z,65.26
2018-05-31T22:47:35.858Z,65.17
2018-05-31T22:50:04.062Z,65.59
2018-05-31T22:52:32.255Z,65.63
2018-05-31T22:55:00.435Z,65.94
2018-05-31T22:57:28.605Z,65.73
2018-05-31T22:59:56.830Z,65.85
2018-05-31T23:02:25.017Z,65.73
2018-05-31T23:04:53.212Z,65.86
2018-05-31T23:07:21.404Z,65.95
2018-05-31T23:09:49.625Z,65.72
2018-05-31T23:12:17.798Z,65.44
2018-05-31T23:14:46.010Z,65.50
2018-05-31T23:17:14.220Z,65.41
2018-05-31T23:19:42.431Z,65.47
2018-05-31T23:22:10.628Z,65.47
2018-05-31T23:24:38.800Z,65.63
2018-05-31T23:27:07.049Z,65.70
2018-05-31T23:29:35.323Z,65.55
2018-05-31T23:32:03.482Z,65.83
2018-05-31T23:34:31.670Z,65.92
2018-05-31T23:36:59.824Z,65.53
2018-05-31T23:39:28.026Z,66.03
2018-05-31T23:41:56.213Z,66.11
2018-05-31T23:44:24.423Z,66.22
2018-05-31T23:46:52.590Z,66.30
2018-05-31T23:49:20.853Z,66.41
2018-05-31T23:51:49.039Z,66.78
2018-05-31T23:54:17.232Z,66.92
2018-05-31T23:56:45.428Z,66.99
2018-05-31T23:59:13.639Z,67.25
